createdAt,value
2022-12-28T00:00:23.520Z,6.00
2022-12-28T00:06:26.547Z,5.80
2022-12-28T00:12:29.654Z,5.60
2022-12-28T00:18:34.819Z,5.40
2022-12-28T00:24:37.028Z,5.20
2022-12-28T00:30:39.241Z,5.10
2022-12-28T00:37:08.386Z,5.00
2022-12-28T00:43:05.080Z,5.00
2022-12-28T00:49:07.381Z,4.90
2022-12-28T00:55:09.695Z,4.90
2022-12-28T01:01:20.434Z,4.90
2022-12-28T01:07:22.641Z,4.90
2022-12-28T01:13:24.700Z,4.80
2022-12-28T01:19:26.899Z,4.70
2022-12-28T01:25:29.292Z,4.60
2022-12-28T01:31:31.613Z,4.50
2022-12-28T01:37:34.002Z,4.40
2022-12-28T01:43:44.143Z,4.40
2022-12-28T01:49:55.969Z,4.40
2022-12-28T01:55:58.122Z,4.40
2022-12-28T02:02:00.589Z,4.40
2022-12-28T02:08:27.113Z,4.40
2022-12-28T02:14:29.814Z,4.50
2022-12-28T02:20:47.438Z,4.60
2022-12-28T02:27:08.544Z,4.70
2022-12-28T02:33:29.619Z,4.70
2022-12-28T02:39:42.220Z,4.80
2022-12-28T02:46:05.283Z,4.80
2022-12-28T02:52:45.006Z,4.70
2022-12-28T02:59:15.784Z,4.70
2022-12-28T03:06:05.719Z,4.70
2022-12-28T03:12:33.047Z,4.70
2022-12-28T03:18:58.504Z,4.60
2022-12-28T03:25:25.971Z,4.60
2022-12-28T03:31:29.484Z,4.50
2022-12-28T03:37:59.955Z,4.50
2022-12-28T03:44:10.815Z,4.50
2022-12-28T03:50:13.536Z,4.50
2022-12-28T03:56:19.816Z,4.50
2022-12-28T04:02:23.298Z,4.40
2022-12-28T04:08:25.995Z,4.30
2022-12-28T04:14:29.023Z,4.30
2022-12-28T04:20:31.400Z,4.30
2022-12-28T04:26:33.910Z,4.30
2022-12-28T04:32:36.260Z,4.40
2022-12-28T04:38:40.078Z,4.40
2022-12-28T04:44:42.442Z,4.40
2022-12-28T04:50:44.632Z,4.40
2022-12-28T04:56:46.771Z,4.40
2022-12-28T05:02:48.945Z,4.40
2022-12-28T05:08:51.756Z,4.40
2022-12-28T05:14:54.028Z,4.50
2022-12-28T05:21:10.195Z,4.50
2022-12-28T05:27:12.347Z,4.50
2022-12-28T05:33:14.498Z,4.50
2022-12-28T05:39:16.830Z,4.50
2022-12-28T05:45:19.251Z,4.40
2022-12-28T05:51:24.427Z,4.30
2022-12-28T05:57:26.542Z,4.30
2022-12-28T06:03:28.737Z,4.20
2022-12-28T06:09:30.837Z,4.10
2022-12-28T06:15:33.060Z,4.10
2022-12-28T06:21:37.823Z,4.10
2022-12-28T06:27:43.064Z,4.10
2022-12-28T06:33:45.912Z,4.10
2022-12-28T06:39:48.171Z,4.30
2022-12-28T06:45:57.281Z,4.60
2022-12-28T06:51:59.450Z,4.70
2022-12-28T06:58:01.491Z,4.80
2022-12-28T07:04:06.605Z,5.00
2022-12-28T07:10:08.922Z,5.20
2022-12-28T07:16:21.593Z,5.40
2022-12-28T07:22:23.953Z,5.50
2022-12-28T07:28:26.048Z,5.70
2022-12-28T07:34:28.237Z,6.10
2022-12-28T07:40:30.447Z,6.20
2022-12-28T07:46:34.605Z,6.90
2022-12-28T07:52:37.628Z,7.50
2022-12-28T08:04:43.419Z,8.00
2022-12-28T08:10:47.151Z,8.30
2022-12-28T08:16:49.436Z,8.10
2022-12-28T08:22:51.559Z,8.20
2022-12-28T08:28:56.215Z,7.80
2022-12-28T08:34:58.469Z,8.10
2022-12-28T08:41:02.804Z,8.00
2022-12-28T08:47:05.239Z,7.80
2022-12-28T08:53:07.550Z,7.50
2022-12-28T08:59:11.288Z,7.70
2022-12-28T09:05:13.644Z,7.90
2022-12-28T09:11:16.018Z,8.00
2022-12-28T09:17:18.155Z,8.70
2022-12-28T09:23:20.424Z,8.90
2022-12-28T09:29:22.500Z,9.00
2022-12-28T09:35:24.685Z,9.40
2022-12-28T09:41:51.787Z,9.20
2022-12-28T09:48:00.346Z,9.30
2022-12-28T09:54:04.471Z,9.30
2022-12-28T10:00:17.474Z,9.70
2022-12-28T10:06:26.487Z,9.90
2022-12-28T10:12:30.170Z,9.80
2022-12-28T10:18:39.250Z,9.40
2022-12-28T10:24:42.404Z,9.20
2022-12-28T10:30:47.217Z,9.30
2022-12-28T10:36:50.740Z,9.60
2022-12-28T10:42:57.844Z,9.50
2022-12-28T10:49:02.824Z,9.90
2022-12-28T10:55:28.792Z,10.40
2022-12-28T11:01:31.122Z,10.20
2022-12-28T11:07:41.442Z,10.40
2022-12-28T11:13:47.198Z,10.50
2022-12-28T11:19:52.124Z,10.40
2022-12-28T11:25:54.240Z,10.70
2022-12-28T11:32:09.065Z,10.80
2022-12-28T11:38:31.847Z,10.90
2022-12-28T11:44:40.012Z,11.10
2022-12-28T11:50:50.456Z,11.30
2022-12-28T11:56:52.607Z,13.00
2022-12-28T12:02:57.349Z,11.20
2022-12-28T12:08:59.561Z,10.90
2022-12-28T12:15:10.973Z,10.80
2022-12-28T12:21:22.614Z,10.50
2022-12-28T12:27:36.916Z,10.60
2022-12-28T12:33:44.718Z,10.00
2022-12-28T12:39:59.310Z,9.60
2022-12-28T12:46:41.306Z,9.30
2022-12-28T12:53:20.893Z,9.10
2022-12-28T12:59:51.166Z,9.00
2022-12-28T13:05:55.881Z,8.90
2022-12-28T13:11:59.205Z,8.80
2022-12-28T13:18:42.966Z,8.70
2022-12-28T13:24:35.001Z,8.50
2022-12-28T13:30:38.647Z,8.40
2022-12-28T13:36:56.714Z,8.20
2022-12-28T13:43:18.135Z,8.10
2022-12-28T13:49:22.226Z,7.90
2022-12-28T13:55:29.689Z,7.80
2022-12-28T14:01:36.718Z,7.70
2022-12-28T14:07:38.947Z,7.70
2022-12-28T14:13:41.273Z,7.60
2022-12-28T14:19:43.746Z,7.50
2022-12-28T14:25:45.901Z,7.40
2022-12-28T14:31:47.999Z,7.30
2022-12-28T14:37:56.638Z,7.10
2022-12-28T14:44:01.218Z,7.00
2022-12-28T14:50:24.932Z,6.80
2022-12-28T14:56:34.345Z,6.70
2022-12-28T15:02:39.122Z,6.50
2022-12-28T15:08:41.149Z,6.30
2022-12-28T15:14:43.963Z,6.20
2022-12-28T15:20:46.208Z,6.10
2022-12-28T15:26:48.342Z,6.00
2022-12-28T15:32:50.493Z,5.90
2022-12-28T15:38:55.436Z,5.80
2022-12-28T15:44:57.623Z,5.60
2022-12-28T15:51:00.046Z,5.40
2022-12-28T15:57:02.287Z,5.20
2022-12-28T16:03:04.576Z,5.10
2022-12-28T16:09:07.103Z,5.00
2022-12-28T16:15:09.541Z,5.00
2022-12-28T16:21:12.286Z,4.90
2022-12-28T16:27:14.660Z,4.80
2022-12-28T16:33:16.868Z,4.70
2022-12-28T16:39:19.099Z,4.60
2022-12-28T16:45:21.147Z,4.50
2022-12-28T16:51:23.447Z,4.40
2022-12-28T16:57:25.596Z,4.40
2022-12-28T17:03:27.895Z,4.30
2022-12-28T17:09:30.123Z,4.20
2022-12-28T17:15:32.176Z,4.10
2022-12-28T17:21:35.416Z,4.10
2022-12-28T17:27:37.509Z,4.00
2022-12-28T17:33:40.449Z,4.00
2022-12-28T17:39:42.519Z,4.00
2022-12-28T17:45:44.696Z,3.90
2022-12-28T17:51:46.976Z,3.80
2022-12-28T17:57:49.083Z,3.70
2022-12-28T18:03:51.484Z,3.70
2022-12-28T18:09:53.625Z,3.60
2022-12-28T18:15:56.127Z,3.60
2022-12-28T18:21:58.383Z,3.50
2022-12-28T18:28:00.403Z,3.40
2022-12-28T18:34:02.792Z,3.30
2022-12-28T18:40:05.396Z,3.30
2022-12-28T18:46:07.890Z,3.20
2022-12-28T18:52:10.330Z,3.10
2022-12-28T18:58:12.615Z,3.00
2022-12-28T19:04:15.135Z,2.90
2022-12-28T19:10:17.825Z,2.80
2022-12-28T19:16:28.563Z,2.80
2022-12-28T19:22:32.872Z,2.90
2022-12-28T19:28:35.188Z,2.80
2022-12-28T19:34:37.360Z,2.70
2022-12-28T19:40:39.573Z,2.70
2022-12-28T19:46:42.047Z,2.60
2022-12-28T19:52:44.244Z,2.50
2022-12-28T19:58:47.556Z,2.40
2022-12-28T20:04:49.775Z,2.30
2022-12-28T20:10:58.061Z,2.20
2022-12-28T20:17:00.489Z,2.10
2022-12-28T20:23:02.575Z,2.00
2022-12-28T20:29:05.515Z,2.00
2022-12-28T20:35:07.681Z,1.90
2022-12-28T20:41:32.078Z,1.90
2022-12-28T20:47:34.232Z,1.80
2022-12-28T20:53:36.340Z,1.80
2022-12-28T20:59:38.528Z,1.70
2022-12-28T21:05:40.527Z,1.70
2022-12-28T21:11:42.737Z,1.60
2022-12-28T21:17:44.778Z,1.50
2022-12-28T21:23:46.985Z,1.50
2022-12-28T21:29:49.165Z,1.40
2022-12-28T21:36:20.595Z,1.30
2022-12-28T21:42:22.614Z,1.30
2022-12-28T21:48:36.435Z,1.30
2022-12-28T21:54:38.759Z,1.20
2022-12-28T22:00:59.850Z,1.20
2022-12-28T22:07:03.032Z,1.20
2022-12-28T22:13:05.108Z,1.10
2022-12-28T22:19:07.308Z,1.00
2022-12-28T22:25:11.321Z,1.00
2022-12-28T22:31:13.585Z,0.90
2022-12-28T22:37:16.243Z,0.90
2022-12-28T22:43:18.410Z,0.90
2022-12-28T22:49:20.550Z,0.90
2022-12-28T22:55:22.618Z,0.90
2022-12-28T23:01:25.113Z,0.70
2022-12-28T23:07:27.431Z,0.70
2022-12-28T23:13:32.408Z,0.60
2022-12-28T23:19:53.794Z,0.50
2022-12-28T23:26:14.775Z,0.50
2022-12-28T23:32:16.777Z,0.40
2022-12-28T23:38:18.823Z,0.40
2022-12-28T23:44:24.030Z,0.30
2022-12-28T23:50:26.149Z,0.30
2022-12-28T23:56:28.407Z,0.20
